Time;durP1;ratioP1;P1;durP2;ratioP2;P2;SDS_P1;SDS_P2;PMS_P1;PMS_P2;Temp;Humidity;BMP_temperature;BMP_pressure;BME280_temperature;BME280_humidity;BME280_pressure;Samples;Min_cycle;Max_cycle;Signal;HPM_P1;HPM_P2
2023/11/23 00:00:44;;;;;;;5.45;0.00;;;;;;;3.53;82.37;99111.53;5073780;28;20052;-70
2023/11/23 00:03:14;;;;;;;3.58;0.30;;;;;;;3.54;82.07;99113.25;5073796;28;20064;-70
2023/11/23 00:05:41;;;;;;;3.00;0.10;;;;;;;3.56;82.36;99119.25;5073445;28;20501;-70
2023/11/23 00:08:08;;;;;;;0.40;0.00;;;;;;;3.56;82.40;99114.09;5076897;28;20044;-70
2023/11/23 00:10:35;;;;;;;1.95;0.00;;;;;;;3.58;82.26;99108.00;5076487;28;20048;-70
2023/11/23 00:13:01;;;;;;;0.25;0.03;;;;;;;3.59;82.40;99111.44;5076033;28;20056;-70
2023/11/23 00:15:28;;;;;;;2.05;0.10;;;;;;;3.62;82.30;99105.38;5077051;28;20052;-70
2023/11/23 00:17:55;;;;;;;0.38;0.00;;;;;;;3.63;82.32;99105.34;5076866;28;20052;-70
2023/11/23 00:20:23;;;;;;;0.17;0.03;;;;;;;3.64;82.48;99108.75;5076751;28;20044;-71
2023/11/23 00:22:50;;;;;;;1.52;0.00;;;;;;;3.65;82.49;99106.16;5076024;28;20048;-70
2023/11/23 00:25:17;;;;;;;2.20;0.10;;;;;;;3.67;82.48;99111.28;5075879;28;20129;-71
2023/11/23 00:27:44;;;;;;;0.10;0.00;;;;;;;3.66;82.43;99097.53;5075933;28;20045;-70
2023/11/23 00:30:12;;;;;;;2.72;0.10;;;;;;;3.68;82.37;99087.19;5076543;28;20046;-70
2023/11/23 00:32:39;;;;;;;0.90;0.10;;;;;;;3.70;82.52;99085.41;5075817;28;20084;-71
2023/11/23 00:35:05;;;;;;;0.68;0.10;;;;;;;3.68;82.45;99076.88;5076481;28;20051;-70
2023/11/23 00:37:33;;;;;;;0.35;0.05;;;;;;;3.72;82.59;99074.19;5075639;28;20048;-71
2023/11/23 00:40:00;;;;;;;0.85;0.10;;;;;;;3.74;82.48;99076.75;5075705;28;20091;-70
2023/11/23 00:42:27;;;;;;;0.82;0.10;;;;;;;3.75;82.50;99075.88;5075445;28;20485;-70
2023/11/23 00:44:56;;;;;;;0.80;0.10;;;;;;;3.75;82.40;99061.22;5077079;28;20049;-72
2023/11/23 00:47:23;;;;;;;0.73;0.10;;;;;;;3.78;82.60;99057.72;5075589;28;20106;-72
2023/11/23 00:49:50;;;;;;;0.10;0.00;;;;;;;3.77;82.46;99054.28;5076291;28;20105;-72
2023/11/23 00:52:17;;;;;;;0.22;0.10;;;;;;;3.79;82.58;99042.22;5076320;28;20048;-72
2023/11/23 00:54:47;;;;;;;2.15;0.00;;;;;;;3.80;82.51;99045.66;5075352;28;20052;-78
2023/11/23 00:57:14;;;;;;;1.23;0.20;;;;;;;3.80;82.42;99041.31;5075249;28;20090;-78
2023/11/23 00:59:41;;;;;;;0.20;0.00;;;;;;;3.82;82.64;99044.75;5075424;28;20056;-78
2023/11/23 01:02:08;;;;;;;0.20;0.00;;;;;;;3.82;82.40;99052.50;5075697;28;20135;-78
2023/11/23 01:04:37;;;;;;;0.80;0.60;;;;;;;3.79;82.48;99037.06;5075419;28;20048;-78
2023/11/23 01:07:04;;;;;;;5.55;0.10;;;;;;;3.84;82.47;99047.28;5075238;28;20059;-78
2023/11/23 01:09:31;;;;;;;4.28;0.10;;;;;;;3.87;82.56;99043.78;5076202;28;20048;-78
2023/11/23 01:12:01;;;;;;;0.25;0.10;;;;;;;3.87;82.43;99041.19;5075904;28;20063;-78
2023/11/23 01:14:28;;;;;;;0.10;0.10;;;;;;;3.88;82.43;99042.94;5075057;28;20135;-78
2023/11/23 01:16:54;;;;;;;3.03;0.10;;;;;;;3.88;82.42;99043.78;5074190;28;20080;-78
2023/11/23 01:19:22;;;;;;;1.98;0.10;;;;;;;3.90;82.57;99038.56;5075676;28;20390;-78
2023/11/23 01:21:49;;;;;;;1.30;0.00;;;;;;;3.88;82.54;99017.09;5074865;28;20044;-78
2023/11/23 01:24:17;;;;;;;1.33;0.20;;;;;;;3.91;82.37;99017.03;5075810;28;20393;-78
2023/11/23 01:26:44;;;;;;;1.92;0.10;;;;;;;3.91;82.38;99011.88;5075667;28;20044;-78
2023/11/23 01:29:12;;;;;;;1.85;0.10;;;;;;;3.93;82.53;99010.13;5074855;28;20051;-78
2023/11/23 01:31:39;;;;;;;1.90;0.10;;;;;;;3.82;82.68;98998.25;5075231;28;20052;-78
2023/11/23 01:34:05;;;;;;;1.25;0.10;;;;;;;3.93;82.65;99007.53;5075711;28;20083;-77
2023/11/23 01:36:32;;;;;;;1.13;0.10;;;;;;;3.95;82.63;99008.31;5074544;28;20052;-78
2023/11/23 01:38:59;;;;;;;0.50;0.10;;;;;;;3.95;82.69;98998.84;5075564;28;20402;-78
2023/11/23 01:41:26;;;;;;;0.05;0.00;;;;;;;3.97;82.50;98996.25;5075385;28;20055;-78
2023/11/23 01:43:52;;;;;;;2.13;0.20;;;;;;;3.98;82.60;98987.59;5075432;28;20048;-78
2023/11/23 01:46:21;;;;;;;1.33;0.10;;;;;;;3.98;82.77;98980.69;5074278;28;20044;-78
2023/11/23 01:48:49;;;;;;;3.00;0.10;;;;;;;3.98;82.57;98975.53;5075039;28;20044;-78
2023/11/23 01:51:18;;;;;;;1.40;0.10;;;;;;;4.00;82.76;98966.03;5075407;28;20040;-78
2023/11/23 01:53:45;;;;;;;6.35;0.35;;;;;;;4.01;82.76;98956.53;5074343;28;20053;-72
2023/11/23 01:56:12;;;;;;;1.65;0.20;;;;;;;4.01;82.58;98947.06;5075029;28;20052;-71
2023/11/23 01:58:39;;;;;;;1.30;0.10;;;;;;;4.01;82.48;98947.06;5074588;28;20386;-72
2023/11/23 02:01:07;;;;;;;2.13;0.10;;;;;;;4.02;82.56;98948.75;5073978;28;20044;-71
2023/11/23 02:03:35;;;;;;;0.98;0.10;;;;;;;4.03;82.47;98947.03;5074781;28;20427;-69
2023/11/23 02:06:02;;;;;;;1.45;0.10;;;;;;;4.03;82.62;98939.28;5073846;28;20045;-69
2023/11/23 02:08:29;;;;;;;1.70;0.10;;;;;;;4.03;82.47;98940.13;5074782;28;20477;-70
2023/11/23 02:10:56;;;;;;;0.35;0.03;;;;;;;4.01;82.32;98933.28;5074986;28;20048;-69
2023/11/23 02:13:23;;;;;;;0.98;0.10;;;;;;;4.03;82.35;98928.94;5074774;28;20068;-69
2023/11/23 02:15:50;;;;;;;0.82;0.00;;;;;;;4.03;82.29;98924.63;5073809;28;20048;-70
2023/11/23 02:18:17;;;;;;;2.25;0.28;;;;;;;4.03;82.34;98906.53;5073777;28;20056;-69
2023/11/23 02:20:46;;;;;;;2.33;0.15;;;;;;;4.03;82.27;98919.44;5073981;28;20055;-71
2023/11/23 02:23:13;;;;;;;3.22;0.10;;;;;;;4.03;82.25;98919.44;5073752;28;20504;-70
2023/11/23 02:25:42;;;;;;;1.50;0.10;;;;;;;4.03;82.40;98922.03;5073586;28;20047;-70
2023/11/23 02:28:09;;;;;;;2.20;0.20;;;;;;;4.03;82.49;98923.78;5073551;28;20049;-70
2023/11/23 02:30:36;;;;;;;0.70;0.10;;;;;;;4.01;82.33;98910.91;5073498;28;20055;-70
2023/11/23 02:33:04;;;;;;;1.70;0.10;;;;;;;4.05;82.52;98922.00;5073503;28;20045;-70
2023/11/23 02:35:31;;;;;;;2.30;0.13;;;;;;;4.00;82.52;98904.00;5073528;28;20520;-70
2023/11/23 02:37:58;;;;;;;4.00;0.17;;;;;;;4.03;82.52;98909.13;5074267;28;20054;-70
2023/11/23 02:40:25;;;;;;;5.10;0.17;;;;;;;4.05;82.61;98896.19;5073410;28;20053;-70
2023/11/23 02:42:54;;;;;;;0.43;0.10;;;;;;;4.06;82.64;98903.88;5074468;28;20052;-70
2023/11/23 02:45:20;;;;;;;4.25;0.10;;;;;;;4.06;82.64;98895.28;5073378;28;20040;-70
2023/11/23 02:47:49;;;;;;;1.33;0.10;;;;;;;4.05;82.25;98893.59;5074209;28;20056;-69
2023/11/23 02:50:16;;;;;;;3.40;0.10;;;;;;;4.08;82.57;98888.34;5074217;28;20531;-70
2023/11/23 02:52:42;;;;;;;2.30;0.10;;;;;;;4.08;82.66;98890.94;5073152;28;20051;-70
2023/11/23 02:55:10;;;;;;;1.85;0.20;;;;;;;4.08;82.69;98875.44;5074122;28;20052;-70
2023/11/23 02:57:37;;;;;;;1.77;0.40;;;;;;;4.08;82.93;98872.84;5073654;28;20443;-70
2023/11/23 03:00:07;;;;;;;3.80;0.30;;;;;;;4.10;82.91;98878.84;5073976;28;20382;-70
2023/11/23 03:02:34;;;;;;;2.95;0.20;;;;;;;4.13;82.83;98867.59;5073155;28;20040;-70
2023/11/23 03:05:01;;;;;;;3.00;0.10;;;;;;;4.13;83.02;98868.44;5073232;28;20532;-76
2023/11/23 03:07:28;;;;;;;1.15;0.40;;;;;;;4.14;83.05;98866.69;5073338;28;20076;-75
2023/11/23 03:09:54;;;;;;;1.20;0.32;;;;;;;4.16;83.04;98860.63;5074247;28;20410;-75
2023/11/23 03:12:21;;;;;;;4.43;0.10;;;;;;;4.17;83.04;98848.53;5073463;28;20048;-75
2023/11/23 03:14:48;;;;;;;3.03;0.10;;;;;;;4.13;nan;98837.44;5073308;28;20080;-70
2023/11/23 03:17:18;;;;;;;2.70;0.10;;;;;;;4.18;83.05;98843.31;5073925;28;20048;-69
2023/11/23 03:19:45;;;;;;;1.13;0.10;;;;;;;4.18;82.99;98838.16;5072988;28;20420;-69
2023/11/23 03:22:12;;;;;;;3.83;0.10;;;;;;;4.20;82.95;98838.13;5072927;28;20053;-70
2023/11/23 03:24:39;;;;;;;6.78;0.20;;;;;;;4.21;82.96;98829.47;5072875;28;20047;-70
2023/11/23 03:27:09;;;;;;;4.53;0.22;;;;;;;4.20;82.77;98823.47;5073883;28;20044;-69
2023/11/23 03:29:36;;;;;;;1.25;0.32;;;;;;;4.21;82.87;98820.00;5074066;28;20388;-70
2023/11/23 03:32:03;;;;;;;2.42;0.10;;;;;;;4.24;82.95;98825.09;5074049;28;20040;-70
2023/11/23 03:34:31;;;;;;;3.92;0.10;;;;;;;4.24;82.97;98819.94;5074030;28;20048;-70
2023/11/23 03:36:58;;;;;;;3.92;0.30;;;;;;;4.25;83.01;98815.59;5073453;28;20048;-70
2023/11/23 03:39:24;;;;;;;4.03;0.32;;;;;;;4.26;82.90;98812.13;5072932;28;20493;-70
2023/11/23 03:41:51;;;;;;;0.75;0.10;;;;;;;4.25;83.02;98800.94;5076918;28;20041;-70
2023/11/23 03:44:18;;;;;;;5.25;0.10;;;;;;;4.26;82.88;98787.13;5077497;28;20051;-70
2023/11/23 03:46:45;;;;;;;0.68;0.20;;;;;;;4.24;82.83;98768.25;5076431;28;20051;-70
2023/11/23 03:49:11;;;;;;;1.98;0.20;;;;;;;4.28;82.77;98763.84;5077719;28;20447;-70
2023/11/23 03:51:40;;;;;;;4.60;0.57;;;;;;;4.28;82.73;98749.19;5076794;28;20054;-70
2023/11/23 03:54:07;;;;;;;0.63;0.10;;;;;;;4.28;82.64;98744.00;5077263;28;20071;-70
2023/11/23 03:56:37;;;;;;;2.13;0.13;;;;;;;4.29;82.62;98737.09;5077625;28;20048;-69
2023/11/23 03:59:04;;;;;;;3.72;0.20;;;;;;;4.28;82.67;98738.84;5076357;28;20055;-69
2023/11/23 04:01:32;;;;;;;2.97;0.10;;;;;;;4.28;82.55;98736.25;5076285;28;20132;-70
2023/11/23 04:03:59;;;;;;;4.20;0.22;;;;;;;4.29;82.40;98719.00;5076914;28;20055;-70
2023/11/23 04:06:26;;;;;;;8.30;1.45;;;;;;;4.28;82.28;98717.31;5076962;28;20060;-70
2023/11/23 04:08:54;;;;;;;5.00;0.22;;;;;;;4.29;82.42;98708.66;5076253;28;20060;-69
2023/11/23 04:11:21;;;;;;;1.98;0.40;;;;;;;4.27;82.16;98710.47;5076922;28;20052;-70
2023/11/23 04:13:48;;;;;;;2.83;0.20;;;;;;;4.26;82.16;98698.41;5077410;28;20378;-73
2023/11/23 04:16:15;;;;;;;1.58;0.10;;;;;;;4.24;82.07;98706.22;5077156;28;20049;-73
2023/11/23 04:18:44;;;;;;;3.22;0.20;;;;;;;4.23;81.96;98707.09;5077261;28;20047;-73
2023/11/23 04:21:11;;;;;;;1.55;0.20;;;;;;;4.22;81.99;98705.41;5076513;28;20477;-74
2023/11/23 04:23:37;;;;;;;1.65;0.50;;;;;;;4.20;81.98;98702.00;5076071;28;20044;-69
2023/11/23 04:26:06;;;;;;;5.43;0.17;;;;;;;4.19;81.89;98700.31;5076628;28;20110;-69
2023/11/23 04:28:34;;;;;;;6.85;0.20;;;;;;;4.13;81.80;98692.72;5075990;28;20044;-69
2023/11/23 04:31:00;;;;;;;2.83;0.10;;;;;;;4.16;81.79;98697.81;5076207;28;20060;-68
2023/11/23 04:33:27;;;;;;;5.38;0.40;;;;;;;4.13;81.91;98695.31;5075657;28;20520;-69
2023/11/23 04:35:54;;;;;;;2.22;0.10;;;;;;;4.11;81.85;98681.56;5076350;28;20386;-69
2023/11/23 04:38:21;;;;;;;7.22;0.30;;;;;;;4.12;81.81;98682.41;5076784;28;20049;-69
2023/11/23 04:40:48;;;;;;;0.63;0.10;;;;;;;4.10;81.84;98682.47;5076739;28;20051;-70
2023/11/23 04:43:16;;;;;;;1.80;0.20;;;;;;;4.10;81.85;98677.31;5076446;28;20075;-69
2023/11/23 04:45:43;;;;;;;1.65;0.10;;;;;;;4.07;81.79;98672.22;5076607;28;20048;-69
2023/11/23 04:48:10;;;;;;;1.05;0.10;;;;;;;4.07;81.76;98674.81;5075570;28;20048;-69
2023/11/23 04:50:37;;;;;;;1.48;0.10;;;;;;;4.06;81.83;98665.34;5076591;28;20063;-69
2023/11/23 04:53:04;;;;;;;2.00;0.20;;;;;;;4.04;81.89;98656.78;5076334;28;20075;-69
2023/11/23 04:55:32;;;;;;;4.50;0.28;;;;;;;4.03;81.76;98643.00;5075496;28;20048;-69
2023/11/23 04:57:58;;;;;;;2.92;0.20;;;;;;;4.03;81.64;98647.34;5075337;28;20048;-69
2023/11/23 05:00:27;;;;;;;4.72;0.20;;;;;;;4.01;81.81;98643.94;5075249;28;20052;-69
2023/11/23 05:02:54;;;;;;;2.47;0.20;;;;;;;4.02;81.75;98635.31;5075326;28;20052;-69
2023/11/23 05:05:20;;;;;;;1.70;0.63;;;;;;;4.00;81.89;98637.09;5075902;28;20055;-69
2023/11/23 05:07:47;;;;;;;1.95;0.10;;;;;;;3.98;81.56;98631.09;5075960;28;20049;-69
2023/11/23 05:10:14;;;;;;;4.68;0.20;;;;;;;3.99;81.77;98630.22;5074979;28;20513;-69
2023/11/23 05:12:41;;;;;;;3.25;0.20;;;;;;;3.98;81.68;98625.94;5075325;28;20048;-69
2023/11/23 05:15:09;;;;;;;6.68;0.32;;;;;;;3.98;81.70;98618.19;5074964;28;20044;-69
2023/11/23 05:17:37;;;;;;;3.13;0.20;;;;;;;3.96;81.79;98617.41;5076079;28;20045;-69
2023/11/23 05:20:05;;;;;;;4.65;0.13;;;;;;;3.95;81.68;98616.53;5075720;28;20044;-69
2023/11/23 05:22:31;;;;;;;4.03;0.25;;;;;;;3.95;81.68;98615.69;5075701;28;20056;-69
2023/11/23 05:24:58;;;;;;;3.47;0.52;;;;;;;3.94;81.73;98608.84;5075558;28;20055;-72
2023/11/23 05:27:25;;;;;;;0.88;0.10;;;;;;;3.93;81.56;98600.25;5075877;28;20045;-73
2023/11/23 05:29:52;;;;;;;1.95;0.20;;;;;;;3.92;81.65;98605.44;5074651;28;20045;-73
2023/11/23 05:32:19;;;;;;;3.17;0.32;;;;;;;3.91;81.55;98607.19;5074544;28;20489;-72
2023/11/23 05:34:47;;;;;;;2.53;0.30;;;;;;;3.89;81.61;98601.19;5075463;28;20523;-71
2023/11/23 05:37:13;;;;;;;1.20;0.10;;;;;;;3.90;81.50;98602.03;5074633;28;20052;-71
2023/11/23 05:39:40;;;;;;;2.25;0.90;;;;;;;3.88;81.37;98598.66;5075283;28;20051;-71
2023/11/23 05:42:08;;;;;;;2.80;0.20;;;;;;;3.83;81.42;98589.28;5074454;28;20056;-71
2023/11/23 05:44:36;;;;;;;8.85;0.68;;;;;;;3.87;81.40;98589.22;5075300;28;20049;-71
2023/11/23 05:47:03;;;;;;;0.65;0.10;;;;;;;3.85;81.30;98588.44;5074563;28;20045;-71
2023/11/23 05:49:30;;;;;;;2.05;0.45;;;;;;;3.85;81.46;98583.25;5075476;28;20044;-70
2023/11/23 05:51:58;;;;;;;3.13;0.40;;;;;;;3.84;81.47;98574.63;5074270;28;20159;-71
2023/11/23 05:54:25;;;;;;;6.93;0.40;;;;;;;3.82;81.26;98572.13;5074991;28;20048;-70
2023/11/23 05:56:52;;;;;;;4.30;0.20;;;;;;;3.82;81.24;98576.44;5074128;28;20048;-71
2023/11/23 05:59:19;;;;;;;3.95;0.95;;;;;;;3.80;81.29;98576.47;5073963;28;20040;-71
2023/11/23 06:01:46;;;;;;;1.50;0.17;;;;;;;3.79;81.05;98574.78;5074600;28;20432;-72
2023/11/23 06:04:13;;;;;;;4.78;0.55;;;;;;;3.78;81.19;98562.72;5074140;28;20056;-71
2023/11/23 06:06:40;;;;;;;1.02;0.20;;;;;;;3.76;81.19;98561.94;5075015;28;20095;-71
2023/11/23 06:09:09;;;;;;;1.95;0.20;;;;;;;3.73;81.18;98554.28;5073916;28;20051;-70
2023/11/23 06:11:36;;;;;;;2.58;0.20;;;;;;;3.73;81.08;98537.91;5073827;28;20056;-70
2023/11/23 06:14:03;;;;;;;3.28;0.73;;;;;;;3.72;80.90;98541.41;5074714;28;20045;-70
2023/11/23 06:16:29;;;;;;;3.38;0.20;;;;;;;3.69;81.14;98526.84;5073773;28;20059;-70
2023/11/23 06:18:56;;;;;;;1.75;0.10;;;;;;;3.69;80.97;98520.84;5073723;28;20051;-70
2023/11/23 06:21:23;;;;;;;2.83;0.17;;;;;;;3.67;80.94;98513.16;5074533;28;20048;-70
2023/11/23 06:23:50;;;;;;;5.47;0.30;;;;;;;3.66;80.99;98510.59;5074059;28;20491;-70
2023/11/23 06:26:20;;;;;;;3.92;0.30;;;;;;;3.63;80.91;98496.03;5074706;28;20045;-70
2023/11/23 06:28:48;;;;;;;2.78;0.35;;;;;;;3.63;81.02;98488.28;5074515;28;20436;-71
2023/11/23 06:31:15;;;;;;;4.93;0.30;;;;;;;3.62;81.08;98484.00;5073595;28;20048;-70
2023/11/23 06:33:41;;;;;;;2.35;0.17;;;;;;;3.60;81.01;98470.28;5074733;28;20546;-70
2023/11/23 06:36:10;;;;;;;0.95;0.13;;;;;;;3.58;81.30;98466.91;5073555;28;20051;-70
2023/11/23 06:38:37;;;;;;;2.88;0.10;;;;;;;3.56;80.90;98459.22;5074581;28;20049;-70
2023/11/23 06:41:05;;;;;;;1.45;0.15;;;;;;;3.56;80.90;98458.38;5073566;28;20049;-70
2023/11/23 06:43:33;;;;;;;3.33;0.20;;;;;;;3.55;81.00;98456.66;5074319;28;20075;-69
2023/11/23 06:46:00;;;;;;;1.35;0.30;;;;;;;3.51;80.91;98448.16;5073399;28;20055;-68
2023/11/23 06:48:27;;;;;;;3.90;0.28;;;;;;;3.51;81.30;98445.59;5073742;28;20051;-69
2023/11/23 06:50:54;;;;;;;5.07;0.17;;;;;;;3.48;80.96;98442.25;5074466;28;20072;-69
2023/11/23 06:53:21;;;;;;;4.25;0.20;;;;;;;3.45;80.88;98430.25;5073347;28;20048;-69
2023/11/23 06:55:48;;;;;;;2.70;0.10;;;;;;;3.47;81.01;98427.63;5074154;28;20068;-68
2023/11/23 06:58:15;;;;;;;2.17;0.20;;;;;;;3.46;80.87;98431.09;5073293;28;20049;-69
2023/11/23 07:00:43;;;;;;;1.33;0.10;;;;;;;3.43;80.88;98429.44;5073211;28;20045;-69
2023/11/23 07:03:10;;;;;;;2.35;0.13;;;;;;;3.43;81.00;98426.03;5073079;28;20398;-69
2023/11/23 07:05:37;;;;;;;0.80;0.15;;;;;;;3.41;81.09;98428.63;5073256;28;20053;-69
2023/11/23 07:08:04;;;;;;;1.63;0.20;;;;;;;3.40;81.08;98419.22;5073944;28;20049;-68
2023/11/23 07:10:33;;;;;;;6.47;0.20;;;;;;;3.33;81.15;98409.94;5073087;28;20060;-69
2023/11/23 07:13:02;;;;;;;3.60;0.13;;;;;;;3.36;81.07;98408.13;5074181;28;20052;-69
2023/11/23 07:15:29;;;;;;;1.40;0.68;;;;;;;3.36;81.29;98408.13;5073808;28;20048;-69
2023/11/23 07:17:58;;;;;;;3.00;0.20;;;;;;;3.35;81.26;98405.59;5077206;28;20052;-68
2023/11/23 07:20:25;;;;;;;2.75;0.70;;;;;;;3.34;81.10;98399.59;5078319;28;20448;-70
2023/11/23 07:22:52;;;;;;;2.63;0.20;;;;;;;3.33;81.18;98399.63;5077412;28;20131;-70
2023/11/23 07:25:19;;;;;;;4.10;1.08;;;;;;;3.33;81.43;98389.28;5077950;28;20371;-71
2023/11/23 07:27:46;;;;;;;2.75;0.30;;;;;;;3.18;81.40;98362.19;5078007;28;20049;-71
2023/11/23 07:30:14;;;;;;;2.38;0.20;;;;;;;3.32;81.44;98383.28;5077606;28;20044;-71
2023/11/23 07:32:41;;;;;;;3.03;0.20;;;;;;;3.32;81.52;98378.13;5076824;28;20056;-70
2023/11/23 07:35:09;;;;;;;1.50;0.20;;;;;;;3.32;81.33;98375.53;5076977;28;20493;-72
2023/11/23 07:37:36;;;;;;;5.05;0.75;;;;;;;3.31;81.43;98366.13;5076870;28;20074;-72
2023/11/23 07:40:12;;;;;;;4.82;0.20;;;;;;;3.31;81.37;98358.38;5077865;28;20049;-72
2023/11/23 07:42:40;;;;;;;2.58;0.20;;;;;;;3.31;81.44;98363.53;5076781;28;20041;-76
2023/11/23 07:45:07;;;;;;;2.65;0.25;;;;;;;3.32;81.72;98352.31;5076757;28;20048;-74
2023/11/23 07:47:35;;;;;;;5.93;0.30;;;;;;;3.32;81.57;98352.31;5077379;28;20045;-73
2023/11/23 07:50:03;;;;;;;4.35;0.30;;;;;;;3.33;81.45;98353.16;5077010;28;20045;-72
2023/11/23 07:52:31;;;;;;;5.03;0.20;;;;;;;3.34;81.65;98344.56;5076487;28;20053;-72
2023/11/23 07:54:58;;;;;;;7.90;0.75;;;;;;;3.33;81.60;98341.13;5076636;28;20049;-72
2023/11/23 07:57:25;;;;;;;5.43;1.20;;;;;;;3.33;81.78;98338.56;5076685;28;20052;-73
2023/11/23 07:59:56;;;;;;;2.45;0.30;;;;;;;3.35;81.74;98331.59;5076262;28;20047;-72
2023/11/23 08:02:24;;;;;;;5.88;0.20;;;;;;;3.35;81.66;98331.59;5076351;28;20048;-79
2023/11/23 08:04:51;;;;;;;8.32;0.98;;;;;;;3.36;81.59;98322.97;5077489;28;20048;-76
2023/11/23 08:07:18;;;;;;;1.52;0.40;;;;;;;3.36;81.71;98316.97;5076165;28;20135;-72
2023/11/23 08:09:46;;;;;;;7.05;0.32;;;;;;;3.37;81.72;98318.66;5076300;28;20051;-71
2023/11/23 08:12:13;;;;;;;4.97;0.40;;;;;;;3.38;82.04;98308.28;5076485;28;20051;-73
2023/11/23 08:14:40;;;;;;;9.00;0.60;;;;;;;3.41;81.85;98301.34;5077123;28;20385;-72
2023/11/23 08:17:08;;;;;;;6.80;0.30;;;;;;;3.37;81.91;98298.03;5076557;28;20555;-71
2023/11/23 08:19:35;;;;;;;6.10;0.35;;;;;;;3.43;81.79;98308.16;5076385;28;20504;-73
2023/11/23 08:22:05;;;;;;;1.98;0.30;;;;;;;3.43;81.77;98302.16;5076009;28;20390;-73
2023/11/23 08:24:32;;;;;;;9.18;0.47;;;;;;;3.33;81.57;98281.78;5076954;28;20141;-76
2023/11/23 08:27:01;;;;;;;10.35;0.40;;;;;;;3.45;81.60;98290.06;5075138;28;20098;-73
2023/11/23 08:29:29;;;;;;;6.90;0.32;;;;;;;3.45;81.77;98293.47;5075921;28;20041;-73
2023/11/23 08:31:57;;;;;;;5.38;0.22;;;;;;;3.46;81.91;98302.06;5075761;28;20048;-72
2023/11/23 08:34:23;;;;;;;7.25;0.32;;;;;;;3.46;81.69;98295.16;5075801;28;20072;-76
2023/11/23 08:36:52;;;;;;;5.35;0.35;;;;;;;3.46;81.78;98297.75;5076881;28;20059;-73
2023/11/23 08:39:19;;;;;;;3.22;0.30;;;;;;;3.48;81.82;98289.97;5075982;28;20057;-74
2023/11/23 08:41:47;;;;;;;10.10;0.55;;;;;;;3.46;81.71;98286.59;5076781;28;20466;-76
2023/11/23 08:44:15;;;;;;;10.00;0.65;;;;;;;3.49;81.80;98281.31;5075651;28;20045;-73
2023/11/23 08:46:43;;;;;;;5.40;0.45;;;;;;;3.50;81.85;98277.84;5076330;28;20041;-73
2023/11/23 08:49:10;;;;;;;11.32;0.82;;;;;;;3.51;82.18;98269.22;5075523;28;20055;-72
2023/11/23 08:51:37;;;;;;;10.57;0.52;;;;;;;3.52;81.80;98268.31;5076533;28;20044;-72
2023/11/23 08:54:05;;;;;;;8.60;1.00;;;;;;;3.53;82.09;98257.09;5075446;28;20072;-78
2023/11/23 08:56:32;;;;;;;4.93;0.43;;;;;;;3.53;81.81;98252.81;5075486;28;20055;-75
2023/11/23 08:58:59;;;;;;;11.63;0.52;;;;;;;3.56;81.98;98246.72;5076244;28;20492;-78
2023/11/23 09:01:27;;;;;;;5.68;0.43;;;;;;;3.56;82.08;98244.13;5076637;28;20491;-81
2023/11/23 09:03:55;;;;;;;13.57;0.85;;;;;;;3.57;82.11;98232.91;5076236;28;20072;-72
2023/11/23 09:06:22;;;;;;;2.83;0.30;;;;;;;3.59;82.08;98238.88;5076194;28;20426;-77
2023/11/23 09:08:49;;;;;;;3.45;0.40;;;;;;;3.59;82.25;98231.13;5075242;28;20047;-76
2023/11/23 09:11:16;;;;;;;5.45;0.50;;;;;;;3.61;82.42;98229.31;5075643;28;20051;-82
2023/11/23 09:13:44;;;;;;;6.50;0.40;;;;;;;3.55;82.33;98214.03;5075695;28;20055;-78
2023/11/23 09:16:13;;;;;;;16.88;0.60;;;;;;;3.63;82.23;98222.38;5075942;28;20051;-78
2023/11/23 09:18:42;;;;;;;4.93;0.30;;;;;;;3.64;82.15;98218.06;5075525;28;20052;-84
2023/11/23 09:21:10;;;;;;;4.57;0.75;;;;;;;3.53;82.17;98193.44;5076174;28;20048;-81
2023/11/23 09:23:37;;;;;;;4.03;0.93;;;;;;;3.67;82.15;98218.81;5075509;28;20045;-80
2023/11/23 09:26:04;;;;;;;7.90;0.47;;;;;;;3.69;82.38;98205.84;5074908;28;20052;-77
2023/11/23 09:28:31;;;;;;;7.32;0.50;;;;;;;3.68;82.19;98199.84;5075771;28;20048;-75
2023/11/23 09:30:58;;;;;;;4.53;0.45;;;;;;;3.68;82.21;98186.94;5075424;28;20048;-79
2023/11/23 09:33:26;;;;;;;6.05;1.23;;;;;;;3.72;82.25;98191.09;5075857;28;20044;-79
2023/11/23 09:35:54;;;;;;;3.70;0.22;;;;;;;3.74;82.36;98188.47;5075779;28;20049;-75
2023/11/23 09:38:21;;;;;;;4.60;0.50;;;;;;;3.73;82.34;98182.47;5073621;28;20526;-78
2023/11/23 09:40:50;;;;;;;8.05;0.80;;;;;;;3.76;82.29;98182.38;5076106;28;20052;-79
2023/11/23 09:43:16;;;;;;;12.15;0.82;;;;;;;3.76;82.32;98169.47;5074535;28;20404;-77
2023/11/23 09:45:45;;;;;;;7.75;0.38;;;;;;;3.80;82.86;98173.63;5074630;28;20044;-84
2023/11/23 09:48:15;;;;;;;10.57;0.70;;;;;;;3.82;82.62;98156.34;5076390;28;20071;-81
2023/11/23 09:50:43;;;;;;;11.70;0.55;;;;;;;3.81;82.34;98152.09;5076407;28;20055;-78
2023/11/23 09:53:13;;;;;;;6.75;0.30;;;;;;;3.85;82.58;98142.50;5075536;28;20140;-83
2023/11/23 09:55:40;;;;;;;6.78;0.43;;;;;;;3.87;82.44;98145.88;5076202;28;20045;-84
2023/11/23 09:58:07;;;;;;;6.60;0.93;;;;;;;3.85;82.57;98133.91;5075323;28;20044;-82
2023/11/23 10:00:35;;;;;;;8.02;0.32;;;;;;;3.91;82.61;98136.28;5074694;28;20058;-79
2023/11/23 10:03:07;;;;;;;7.93;0.40;;;;;;;3.86;82.67;98115.78;5074380;28;20051;-76
2023/11/23 10:05:37;;;;;;;5.90;0.38;;;;;;;3.92;82.73;98109.56;5073967;28;20051;-76
2023/11/23 10:08:05;;;;;;;9.07;1.40;;;;;;;3.98;82.65;98117.09;5073884;28;20044;-76
2023/11/23 10:10:33;;;;;;;7.78;0.52;;;;;;;4.00;82.68;98108.38;5074207;28;20045;-76
2023/11/23 10:13:00;;;;;;;7.72;0.30;;;;;;;4.01;82.77;98098.91;5075220;28;20055;-85
2023/11/23 10:15:27;;;;;;;6.65;0.75;;;;;;;4.04;82.60;98086.75;5075137;28;20401;-82
2023/11/23 10:17:54;;;;;;;7.80;0.52;;;;;;;4.08;82.92;98082.31;5074844;28;20389;-75
2023/11/23 10:20:22;;;;;;;6.25;0.30;;;;;;;4.10;82.83;98071.91;5073916;28;20051;-74
2023/11/23 10:22:49;;;;;;;7.85;0.40;;;;;;;4.12;82.69;98067.53;5074289;28;20056;-80
2023/11/23 10:25:25;;;;;;;5.70;0.40;;;;;;;4.15;82.68;98063.09;5073983;28;20055;-80
2023/11/23 10:27:58;;;;;;;6.25;0.30;;;;;;;4.17;82.66;98053.53;5074142;28;20064;-75
2023/11/23 10:30:25;;;;;;;6.72;0.30;;;;;;;4.18;82.73;98044.06;5074297;28;20070;-76
2023/11/23 10:32:53;;;;;;;5.70;0.30;;;;;;;4.22;82.69;98046.47;5074709;28;20056;-76
2023/11/23 10:35:21;;;;;;;13.80;1.65;;;;;;;4.26;82.83;98039.44;5074493;28;20067;-77
2023/11/23 10:37:53;;;;;;;3.60;0.35;;;;;;;4.26;82.65;98032.53;5073619;28;20135;-73
2023/11/23 10:40:21;;;;;;;11.38;0.30;;;;;;;4.32;82.60;98028.03;5073507;28;20063;-73
2023/11/23 10:42:50;;;;;;;7.32;0.45;;;;;;;4.35;82.50;98025.34;5073361;28;20048;-74
2023/11/23 10:45:21;;;;;;;8.38;0.40;;;;;;;4.38;82.55;98017.47;5073732;28;20047;-74
2023/11/23 10:47:47;;;;;;;3.63;0.28;;;;;;;4.40;82.46;98002.75;5073394;28;20045;-75
2023/11/23 10:50:15;;;;;;;8.05;1.55;;;;;;;4.43;82.50;97997.47;5073495;28;20044;-79
2023/11/23 10:52:45;;;;;;;5.93;0.73;;;;;;;4.46;82.55;97997.34;5074613;28;20479;-80
2023/11/23 10:55:11;;;;;;;9.18;0.30;;;;;;;4.48;82.37;97991.22;5074952;28;20052;-81
2023/11/23 10:57:40;;;;;;;4.28;0.43;;;;;;;4.51;82.28;97985.09;5073916;28;20044;-81
2023/11/23 11:00:11;;;;;;;4.88;0.55;;;;;;;4.52;82.28;97979.03;5073558;28;20049;-78
2023/11/23 11:02:40;;;;;;;3.13;0.28;;;;;;;4.56;82.22;97972.84;5073342;28;20127;-80
2023/11/23 11:05:21;;;;;;;5.35;0.47;;;;;;;4.59;82.34;97983.06;5073720;28;20049;-74
2023/11/23 11:07:54;;;;;;;4.85;0.45;;;;;;;4.51;82.20;97965.25;5073069;28;20052;-74
2023/11/23 11:10:21;;;;;;;6.55;0.20;;;;;;;4.64;82.09;97975.09;5074248;28;20098;-74
2023/11/23 11:12:48;;;;;;;3.17;0.57;;;;;;;4.67;81.86;97972.44;5073346;28;20508;-74
2023/11/23 11:15:21;;;;;;;4.43;0.20;;;;;;;4.68;81.86;97968.94;5073600;28;20049;-74
2023/11/23 11:17:51;;;;;;;3.03;0.20;;;;;;;4.69;81.66;97961.09;5073331;28;20048;-74
2023/11/23 11:20:22;;;;;;;3.05;0.20;;;;;;;4.71;81.72;97956.72;5073785;28;20041;-74
2023/11/23 11:22:56;;;;;;;2.20;0.20;;;;;;;4.75;81.82;97952.25;5074356;28;20075;-74
2023/11/23 11:25:23;;;;;;;8.20;0.30;;;;;;;4.77;81.53;97962.56;5073742;28;20390;-74
2023/11/23 11:27:51;;;;;;;5.38;0.20;;;;;;;4.79;81.37;97953.81;5073971;28;20059;-73
2023/11/23 11:30:24;;;;;;;4.45;0.10;;;;;;;4.78;81.20;97949.56;5073222;28;20048;-73
2023/11/23 11:32:53;;;;;;;5.82;0.25;;;;;;;4.78;81.38;97949.56;5073037;28;20083;-74
2023/11/23 11:35:20;;;;;;;2.10;0.10;;;;;;;4.84;81.32;97953.63;5073377;28;20048;-74
2023/11/23 11:37:48;;;;;;;1.98;0.15;;;;;;;4.86;81.09;97946.66;5073615;28;20048;-74
2023/11/23 11:40:16;;;;;;;1.08;0.10;;;;;;;4.88;81.03;97952.63;5072891;28;20041;-74
2023/11/23 11:42:43;;;;;;;0.73;0.10;;;;;;;4.89;80.91;97947.38;5072903;28;20106;-74